Time;durP1;ratioP1;P1;durP2;ratioP2;P2;SDS_P1;SDS_P2;PMS_P1;PMS_P2;Temp;Humidity;BMP_temperature;BMP_pressure;BME280_temperature;BME280_humidity;BME280_pressure;Samples;Min_cycle;Max_cycle;Signal;HPM_P1;HPM_P2
2022/12/12 00:01:31;;;;;;;5.78;3.03;;;19.80;30.40;;;;;;5034352;28;20037;-57
2022/12/12 00:03:58;;;;;;;4.22;3.05;;;19.70;30.30;;;;;;5034814;28;20361;-58
2022/12/12 00:06:24;;;;;;;4.53;3.30;;;19.70;30.30;;;;;;5033504;28;20029;-56
2022/12/12 00:08:51;;;;;;;5.63;3.33;;;19.70;30.30;;;;;;5028099;28;20113;-59
2022/12/12 00:11:17;;;;;;;4.35;3.22;;;19.70;30.30;;;;;;5035297;28;20322;-55
2022/12/12 00:13:43;;;;;;;3.80;3.20;;;19.70;30.30;;;;;;5042517;28;20049;-55
2022/12/12 00:16:10;;;;;;;4.20;3.20;;;19.70;30.30;;;;;;5053981;28;20036;-58
2022/12/12 00:18:36;;;;;;;3.40;3.10;;;19.70;30.40;;;;;;5055186;28;20131;-55
2022/12/12 00:21:04;;;;;;;3.30;2.97;;;19.70;30.40;;;;;;5055304;28;20043;-57
2022/12/12 00:23:31;;;;;;;4.05;3.53;;;19.70;30.50;;;;;;5055614;28;20333;-54
2022/12/12 00:25:59;;;;;;;4.72;3.42;;;19.70;30.50;;;;;;5053717;28;20036;-56
2022/12/12 00:28:25;;;;;;;3.58;3.00;;;19.70;30.50;;;;;;5036720;28;20029;-56
2022/12/12 00:30:51;;;;;;;4.13;3.30;;;19.70;30.50;;;;;;5054647;28;20444;-53
2022/12/12 00:33:17;;;;;;;4.10;3.13;;;19.60;30.40;;;;;;5054569;28;20040;-56
2022/12/12 00:35:44;;;;;;;3.95;3.40;;;19.60;30.40;;;;;;5054219;28;20029;-57
2022/12/12 00:38:10;;;;;;;3.50;3.03;;;19.60;30.50;;;;;;5054533;28;20474;-52
2022/12/12 00:40:36;;;;;;;4.72;3.45;;;19.60;30.40;;;;;;5055209;28;20051;-54
2022/12/12 00:43:02;;;;;;;5.28;3.45;;;19.60;30.40;;;;;;5053223;28;20112;-55
2022/12/12 00:45:28;;;;;;;5.18;3.90;;;19.60;30.40;;;;;;5055128;28;20083;-51
2022/12/12 00:47:54;;;;;;;4.18;3.58;;;19.60;30.40;;;;;;5054654;28;20033;-53
2022/12/12 00:50:20;;;;;;;3.80;3.40;;;19.60;30.40;;;;;;5052955;28;20522;-51
2022/12/12 00:52:46;;;;;;;3.72;3.30;;;19.60;30.40;;;;;;5054077;28;20017;-51
2022/12/12 00:55:12;;;;;;;4.00;3.50;;;19.50;30.40;;;;;;5053883;28;20440;-53
2022/12/12 00:57:38;;;;;;;4.30;3.40;;;19.60;31.10;;;;;;5050677;28;20047;-55
2022/12/12 01:00:06;;;;;;;5.25;3.90;;;19.50;30.40;;;;;;5054601;28;20110;-58
2022/12/12 01:02:32;;;;;;;4.88;3.90;;;19.60;30.50;;;;;;5058331;28;20033;-56
2022/12/12 01:04:58;;;;;;;5.07;4.20;;;19.50;30.40;;;;;;5041973;28;20033;-56
2022/12/12 01:07:23;;;;;;;4.57;3.40;;;19.50;30.40;;;;;;5057639;28;20025;-54
2022/12/12 01:09:49;;;;;;;5.43;3.55;;;19.50;30.40;;;;;;5040448;28;20037;-52
2022/12/12 01:12:15;;;;;;;4.13;3.60;;;19.50;30.40;;;;;;5038845;28;20033;-53
2022/12/12 01:14:41;;;;;;;4.30;3.75;;;19.50;30.50;;;;;;5040628;28;20183;-50
2022/12/12 01:17:07;;;;;;;3.97;3.38;;;19.50;30.40;;;;;;5058138;28;20029;-57
2022/12/12 01:19:33;;;;;;;4.45;3.80;;;19.50;30.50;;;;;;5058203;28;20049;-52
2022/12/12 01:21:58;;;;;;;4.78;3.80;;;19.40;30.40;;;;;;5056711;28;20170;-52
2022/12/12 01:24:25;;;;;;;4.28;3.80;;;19.50;30.40;;;;;;5058505;28;20033;-55
2022/12/12 01:26:51;;;;;;;5.03;3.63;;;19.40;30.40;;;;;;5040126;28;20083;-57
2022/12/12 01:29:17;;;;;;;4.75;3.88;;;19.50;30.40;;;;;;5040094;28;20372;-50
2022/12/12 01:31:43;;;;;;;4.40;3.65;;;19.40;30.40;;;;;;5058273;28;20043;-51
2022/12/12 01:34:09;;;;;;;4.95;3.97;;;19.40;30.40;;;;;;5057024;28;20044;-54
2022/12/12 01:36:35;;;;;;;6.07;3.95;;;19.40;30.40;;;;;;5057951;28;20029;-51
2022/12/12 01:39:02;;;;;;;4.63;3.88;;;19.40;31.10;;;;;;5057784;28;20067;-56
2022/12/12 01:41:28;;;;;;;5.57;4.03;;;19.40;30.40;;;;;;5057915;28;20091;-55
2022/12/12 01:43:54;;;;;;;6.13;3.95;;;19.40;30.40;;;;;;5058260;28;20037;-53
2022/12/12 01:46:34;;;;;;;4.80;3.90;;;19.40;30.50;;;;;;5056932;28;20115;-57
2022/12/12 01:49:03;;;;;;;4.20;3.53;;;19.40;30.50;;;;;;5055247;28;20124;-51
2022/12/12 01:51:29;;;;;;;5.80;4.68;;;19.40;30.50;;;;;;5057863;28;20082;-48
2022/12/12 01:54:12;;;;;;;5.35;4.20;;;19.40;30.50;;;;;;5056411;28;20021;-55
2022/12/12 01:56:40;;;;;;;5.45;4.30;;;19.40;30.50;;;;;;5057658;28;20025;-49
2022/12/12 01:59:09;;;;;;;4.38;3.78;;;19.40;30.50;;;;;;5057937;28;20116;-52
2022/12/12 02:01:36;;;;;;;4.97;4.30;;;19.30;30.40;;;;;;5055164;28;20037;-53
2022/12/12 02:04:03;;;;;;;5.88;4.40;;;19.30;30.40;;;;;;5057509;28;20036;-56
2022/12/12 02:06:30;;;;;;;4.82;4.32;;;19.30;30.40;;;;;;5057482;28;20040;-54
2022/12/12 02:09:00;;;;;;;5.57;4.15;;;19.30;30.40;;;;;;5055305;28;20036;-54
2022/12/12 02:11:27;;;;;;;4.15;3.72;;;19.30;30.50;;;;;;5057297;28;20037;-55
2022/12/12 02:13:53;;;;;;;4.07;3.65;;;19.30;30.50;;;;;;5056319;28;20055;-49
2022/12/12 02:16:57;;;;;;;4.20;3.80;;;19.30;30.60;;;;;;5056800;28;20032;-50
2022/12/12 02:19:31;;;;;;;4.65;3.47;;;19.30;30.60;;;;;;5052477;28;20452;-51
2022/12/12 02:22:01;;;;;;;5.18;3.95;;;19.30;30.50;;;;;;5057510;28;20079;-50
2022/12/12 02:24:32;;;;;;;4.70;3.90;;;19.30;30.50;;;;;;5056625;28;20448;-52
2022/12/12 02:27:20;;;;;;;5.53;4.20;;;19.30;30.50;;;;;;5055535;28;20408;-53
2022/12/12 02:30:20;;;;;;;4.25;3.83;;;19.30;30.50;;;;;;5056721;28;20029;-54
2022/12/12 02:33:03;;;;;;;4.72;3.72;;;19.30;30.50;;;;;;5053949;28;20451;-54
2022/12/12 02:35:50;;;;;;;6.00;3.92;;;19.30;30.50;;;;;;5049012;28;20037;-54
2022/12/12 02:38:19;;;;;;;5.20;3.78;;;19.20;30.40;;;;;;5056245;28;20029;-52
2022/12/12 02:40:49;;;;;;;5.53;4.10;;;19.20;30.50;;;;;;5056601;28;20551;-54
2022/12/12 02:43:24;;;;;;;4.32;3.50;;;19.20;30.40;;;;;;5056965;28;20029;-56
2022/12/12 02:45:56;;;;;;;5.00;3.67;;;19.20;30.50;;;;;;5054803;28;20130;-55
2022/12/12 02:48:29;;;;;;;5.18;4.18;;;19.20;30.40;;;;;;5055883;28;20083;-55
2022/12/12 02:50:59;;;;;;;4.95;3.67;;;19.20;30.40;;;;;;5056374;28;20029;-54
2022/12/12 02:53:25;;;;;;;4.57;4.05;;;19.20;30.40;;;;;;5056525;28;20471;-57
2022/12/12 02:56:03;;;;;;;4.60;4.20;;;19.20;30.50;;;;;;5055341;28;20029;-54
2022/12/12 02:58:30;;;;;;;4.78;3.75;;;19.20;30.40;;;;;;5056256;28;20122;-53
2022/12/12 03:01:32;;;;;;;5.30;3.90;;;19.20;30.40;;;;;;5056344;28;20040;-54
2022/12/12 03:10:08;;;;;;;5.10;3.92;;;19.10;30.60;;;;;;5036884;28;20033;-52
2022/12/12 03:13:02;;;;;;;4.55;3.63;;;19.10;30.30;;;;;;5040396;28;20029;-55
2022/12/12 03:15:46;;;;;;;4.20;3.65;;;19.10;30.40;;;;;;5050510;28;20065;-54
2022/12/12 03:18:22;;;;;;;5.55;3.97;;;19.10;30.40;;;;;;5045935;28;20048;-53
2022/12/12 03:21:02;;;;;;;4.30;3.90;;;19.10;30.40;;;;;;5036308;28;20046;-59
2022/12/12 03:23:35;;;;;;;4.05;3.45;;;19.10;30.40;;;;;;5041565;28;20468;-52
2022/12/12 03:26:13;;;;;;;4.43;3.47;;;19.10;30.40;;;;;;5054409;28;20040;-55
2022/12/12 03:29:04;;;;;;;4.78;3.85;;;19.10;30.40;;;;;;5056388;28;20445;-57
2022/12/12 03:31:33;;;;;;;5.03;3.60;;;19.10;30.40;;;;;;5056481;28;20337;-56
2022/12/12 03:34:08;;;;;;;4.05;3.50;;;19.10;30.40;;;;;;5054124;28;20124;-58
2022/12/12 03:36:46;;;;;;;4.32;3.80;;;19.10;30.40;;;;;;5036537;28;20041;-57
2022/12/12 03:39:18;;;;;;;4.88;4.20;;;19.10;30.40;;;;;;5036814;28;20045;-55
2022/12/12 03:42:24;;;;;;;5.97;3.80;;;19.00;30.30;;;;;;5051500;28;20055;-52
2022/12/12 03:45:14;;;;;;;4.28;3.53;;;19.00;30.30;;;;;;4964745;28;20051;-53
2022/12/12 03:47:46;;;;;;;5.10;4.00;;;19.00;30.30;;;;;;5044567;28;20047;-56
2022/12/12 03:50:18;;;;;;;5.20;4.22;;;19.00;30.90;;;;;;5056051;28;20129;-53
2022/12/12 03:52:54;;;;;;;4.80;4.22;;;19.00;30.30;;;;;;5055448;28;20075;-53
2022/12/12 03:55:43;;;;;;;5.53;4.07;;;19.00;30.30;;;;;;5055630;28;20099;-53
2022/12/12 03:58:31;;;;;;;4.50;3.75;;;19.00;30.30;;;;;;5055477;28;20098;-52
2022/12/12 04:00:59;;;;;;;3.95;3.50;;;19.00;30.20;;;;;;5055176;28;20048;-53
2022/12/12 04:03:36;;;;;;;4.78;3.80;;;19.00;30.20;;;;;;5044158;28;20460;-56
2022/12/12 04:06:25;;;;;;;5.35;3.78;;;19.00;30.20;;;;;;5054266;28;20464;-48
2022/12/12 04:14:54;;;;;;;4.88;3.97;;;19.00;30.20;;;;;;5011274;28;20056;-55
2022/12/12 04:17:23;;;;;;;;;;;19.00;30.20;;;;;;5051973;28;20460;-55
2022/12/12 04:29:07;;;;;;;3.50;3.20;;;18.90;30.20;;;;;;5035096;28;20033;-53
2022/12/12 04:31:38;;;;;;;5.05;4.00;;;18.90;30.20;;;;;;4994392;28;20182;-53
2022/12/12 04:34:19;;;;;;;3.97;3.40;;;18.90;30.20;;;;;;5054173;28;20126;-50
2022/12/12 04:36:46;;;;;;;5.03;3.95;;;18.90;30.20;;;;;;5035226;28;20176;-56
2022/12/12 04:39:15;;;;;;;3.90;3.45;;;18.90;30.20;;;;;;5038945;28;20093;-55
2022/12/12 04:41:43;;;;;;;4.18;3.40;;;18.90;30.40;;;;;;5054842;28;20108;-56
2022/12/12 04:44:11;;;;;;;4.20;3.42;;;18.90;30.40;;;;;;5054701;28;20029;-52
2022/12/12 04:46:39;;;;;;;4.25;3.60;;;18.90;30.40;;;;;;5053778;28;20040;-49
2022/12/12 04:49:13;;;;;;;4.80;3.42;;;18.90;30.40;;;;;;5034531;28;20069;-56
2022/12/12 04:51:46;;;;;;;4.30;3.60;;;18.90;30.40;;;;;;5054515;28;20448;-52
2022/12/12 04:54:27;;;;;;;5.07;4.15;;;18.80;30.30;;;;;;5054953;28;20343;-54
2022/12/12 04:56:57;;;;;;;3.85;3.25;;;18.80;30.30;;;;;;5054295;28;20120;-52
2022/12/12 04:59:24;;;;;;;4.55;3.50;;;18.80;30.30;;;;;;5054811;28;20044;-53
2022/12/12 05:02:14;;;;;;;5.13;3.65;;;18.80;30.30;;;;;;5049442;28;20060;-50
2022/12/12 05:04:48;;;;;;;5.05;3.70;;;18.80;30.20;;;;;;5049427;28;20029;-53
2022/12/12 05:07:26;;;;;;;4.25;3.75;;;18.80;30.30;;;;;;5036362;28;20121;-53
2022/12/12 05:09:52;;;;;;;3.88;3.35;;;18.80;30.30;;;;;;5055140;28;20040;-57
2022/12/12 05:12:19;;;;;;;5.05;4.13;;;18.80;30.30;;;;;;5054784;28;20033;-53
2022/12/12 05:14:47;;;;;;;4.28;3.63;;;18.80;30.20;;;;;;5054137;28;20044;-54
2022/12/12 05:17:16;;;;;;;4.55;3.75;;;18.80;30.30;;;;;;5053307;28;20091;-55
2022/12/12 05:19:42;;;;;;;4.35;3.38;;;18.80;30.20;;;;;;5034867;28;20125;-49
2022/12/12 05:22:08;;;;;;;3.75;3.35;;;18.80;30.20;;;;;;5040719;28;20436;-51
2022/12/12 05:24:33;;;;;;;3.90;3.30;;;18.80;30.20;;;;;;5054047;28;20041;-54
2022/12/12 05:26:59;;;;;;;4.47;3.70;;;18.80;30.30;;;;;;5054626;28;20036;-57
2022/12/12 05:29:25;;;;;;;4.60;3.50;;;18.80;30.30;;;;;;5054637;28;20033;-51
2022/12/12 05:31:51;;;;;;;4.72;3.72;;;18.80;30.20;;;;;;5036767;28;20033;-55
2022/12/12 05:34:17;;;;;;;5.07;3.85;;;18.80;30.20;;;;;;5024536;28;20055;-54
2022/12/12 05:36:43;;;;;;;4.88;4.07;;;18.80;30.20;;;;;;5034709;28;20017;-54
2022/12/12 05:39:09;;;;;;;4.88;3.95;;;18.70;30.10;;;;;;5042836;28;20041;-54
2022/12/12 05:41:34;;;;;;;3.70;3.25;;;18.70;30.10;;;;;;5036972;28;20029;-51
2022/12/12 05:44:00;;;;;;;4.30;3.60;;;18.70;30.10;;;;;;5054146;28;20372;-50
2022/12/12 05:46:26;;;;;;;5.03;4.10;;;18.80;30.10;;;;;;5055479;28;20037;-53
2022/12/12 05:48:52;;;;;;;5.68;4.07;;;18.70;30.00;;;;;;5055759;28;20025;-52
2022/12/12 05:51:19;;;;;;;5.00;3.60;;;18.70;30.00;;;;;;5057773;28;20021;-50
2022/12/12 05:53:46;;;;;;;5.07;3.95;;;18.70;30.00;;;;;;5057442;28;20036;-52
2022/12/12 05:56:13;;;;;;;4.18;3.65;;;18.70;30.00;;;;;;5058938;28;20364;-55
2022/12/12 05:58:39;;;;;;;4.97;4.15;;;18.70;30.00;;;;;;5058067;28;20033;-54
2022/12/12 06:01:06;;;;;;;5.00;4.03;;;18.70;30.00;;;;;;5057948;28;20037;-56
2022/12/12 06:03:32;;;;;;;4.22;3.63;;;18.70;30.00;;;;;;5061191;28;20098;-53
2022/12/12 06:05:58;;;;;;;5.28;4.25;;;18.70;30.00;;;;;;5040538;28;20025;-53
2022/12/12 06:08:24;;;;;;;4.70;4.00;;;18.70;30.00;;;;;;5048733;28;20040;-57
2022/12/12 06:10:49;;;;;;;5.10;3.85;;;18.70;30.00;;;;;;5057664;28;20036;-54
2022/12/12 06:13:15;;;;;;;5.88;4.50;;;18.70;30.00;;;;;;5056946;28;20372;-53
2022/12/12 06:15:41;;;;;;;5.47;4.00;;;18.70;30.00;;;;;;5057235;28;20029;-54
2022/12/12 06:18:08;;;;;;;4.15;3.45;;;18.70;30.00;;;;;;5047078;28;20025;-51
2022/12/12 06:20:34;;;;;;;5.25;3.40;;;18.60;30.00;;;;;;5037601;28;20048;-54
2022/12/12 06:23:00;;;;;;;5.88;4.03;;;18.60;30.00;;;;;;5046023;28;20309;-54
2022/12/12 06:25:26;;;;;;;5.05;4.03;;;18.60;30.00;;;;;;5057562;28;20041;-52
2022/12/12 06:27:52;;;;;;;4.60;3.60;;;18.60;30.00;;;;;;5056916;28;20029;-54
2022/12/12 06:30:18;;;;;;;4.75;4.10;;;18.60;30.00;;;;;;5057843;28;20432;-58
2022/12/12 06:32:44;;;;;;;5.20;4.00;;;18.60;30.00;;;;;;5055357;28;20083;-57
2022/12/12 06:35:11;;;;;;;4.05;3.63;;;18.60;30.00;;;;;;5038917;28;20417;-51
2022/12/12 06:37:38;;;;;;;4.20;3.40;;;18.60;30.00;;;;;;5056735;28;20108;-55
2022/12/12 06:40:04;;;;;;;4.32;3.55;;;18.60;30.00;;;;;;5055618;28;20048;-51
2022/12/12 06:42:30;;;;;;;4.88;3.80;;;18.60;30.00;;;;;;5057223;28;20036;-55
2022/12/12 06:44:56;;;;;;;4.53;3.88;;;18.60;30.00;;;;;;5057006;28;20117;-50
2022/12/12 06:47:22;;;;;;;4.20;3.80;;;18.60;29.90;;;;;;5056181;28;20032;-54
2022/12/12 06:49:48;;;;;;;4.20;3.75;;;18.50;29.90;;;;;;5055730;28;20134;-52
2022/12/12 06:52:14;;;;;;;5.50;4.20;;;18.60;29.90;;;;;;5057118;28;20103;-55
2022/12/12 06:54:39;;;;;;;4.05;3.17;;;18.60;29.90;;;;;;5056532;28;20028;-54
2022/12/12 06:57:05;;;;;;;4.82;4.18;;;18.50;29.90;;;;;;5057499;28;20028;-56
2022/12/12 06:59:31;;;;;;;4.53;3.88;;;18.50;29.90;;;;;;5055005;28;20047;-55
2022/12/12 07:01:57;;;;;;;5.43;3.95;;;18.50;29.90;;;;;;5055794;28;20036;-54
2022/12/12 07:04:24;;;;;;;4.82;3.92;;;18.50;29.80;;;;;;5056209;28;20036;-54
2022/12/12 07:06:50;;;;;;;4.70;3.85;;;18.50;29.80;;;;;;5056912;28;20353;-57
2022/12/12 07:09:17;;;;;;;4.80;3.63;;;18.50;29.80;;;;;;5019979;28;20337;-54
2022/12/12 07:11:43;;;;;;;4.47;3.50;;;18.50;29.80;;;;;;5051607;28;20029;-51
2022/12/12 07:14:10;;;;;;;4.60;3.55;;;18.50;29.90;;;;;;5037766;28;20126;-55
2022/12/12 07:16:36;;;;;;;4.97;3.88;;;18.50;29.90;;;;;;5056580;28;20380;-57
2022/12/12 07:19:03;;;;;;;4.75;3.88;;;18.50;29.90;;;;;;5055863;28;20040;-58
2022/12/12 07:21:29;;;;;;;4.85;3.85;;;18.50;29.90;;;;;;5056100;28;20025;-53
2022/12/12 07:23:55;;;;;;;5.00;3.95;;;18.50;29.90;;;;;;5055843;28;20041;-57
2022/12/12 07:26:23;;;;;;;4.50;3.95;;;18.50;30.40;;;;;;5032959;28;20033;-57
2022/12/12 07:28:50;;;;;;;4.80;4.20;;;18.50;30.00;;;;;;5048703;28;20044;-55
2022/12/12 07:31:19;;;;;;;5.85;4.20;;;18.50;30.00;;;;;;5056333;28;20082;-51
2022/12/12 07:33:45;;;;;;;4.68;3.70;;;18.50;29.90;;;;;;5056082;28;20043;-53
2022/12/12 07:36:13;;;;;;;4.63;3.92;;;18.40;30.00;;;;;;5056348;28;20028;-55
2022/12/12 07:38:39;;;;;;;5.63;4.20;;;18.40;30.00;;;;;;5054152;28;20123;-56
2022/12/12 07:41:08;;;;;;;4.97;4.00;;;18.40;30.00;;;;;;5046581;28;20040;-55
2022/12/12 07:43:35;;;;;;;5.05;4.15;;;18.40;30.00;;;;;;5053981;28;20052;-51
2022/12/12 07:46:01;;;;;;;6.72;3.25;;;18.40;30.00;;;;;;5055034;28;20017;-54
2022/12/12 07:48:28;;;;;;;4.80;3.63;;;18.40;30.20;;;;;;5019411;28;20455;-54
2022/12/12 07:50:54;;;;;;;4.18;3.03;;;18.40;30.30;;;;;;5050948;28;20512;-53
2022/12/12 07:53:20;;;;;;;4.05;3.10;;;18.40;30.50;;;;;;5055090;28;20033;-56
2022/12/12 07:55:46;;;;;;;3.97;3.00;;;18.40;30.70;;;;;;5045942;28;20396;-52
2022/12/12 07:58:12;;;;;;;4.07;2.90;;;18.50;30.80;;;;;;5053633;28;20029;-53
2022/12/12 08:00:38;;;;;;;4.38;2.83;;;18.50;30.90;;;;;;5046686;28;20105;-55
2022/12/12 08:03:04;;;;;;;3.80;2.63;;;18.50;31.10;;;;;;5039481;28;20436;-53
2022/12/12 08:05:29;;;;;;;3.85;2.78;;;18.60;31.20;;;;;;5036287;28;20048;-52
2022/12/12 08:07:55;;;;;;;3.85;2.72;;;18.60;31.20;;;;;;5044699;28;20043;-52
2022/12/12 08:10:21;;;;;;;3.50;2.63;;;18.70;31.30;;;;;;5049459;28;20033;-56
2022/12/12 08:12:47;;;;;;;3.78;2.72;;;18.70;31.20;;;;;;5055669;28;20107;-55
2022/12/12 08:15:17;;;;;;;3.92;2.88;;;18.80;31.30;;;;;;5055424;28;20444;-54
2022/12/12 08:17:43;;;;;;;5.00;2.88;;;18.90;31.30;;;;;;5034820;28;20037;-54
2022/12/12 08:20:09;;;;;;;5.28;2.97;;;19.00;31.30;;;;;;5055180;28;20041;-53
2022/12/12 08:22:36;;;;;;;3.70;2.70;;;19.00;31.30;;;;;;5043215;28;20359;-54
2022/12/12 08:25:03;;;;;;;5.15;3.33;;;19.10;31.30;;;;;;5053412;28;20029;-57
2022/12/12 08:27:29;;;;;;;4.70;2.85;;;19.20;31.30;;;;;;5054546;28;20029;-55
2022/12/12 08:29:55;;;;;;;5.00;3.13;;;19.20;31.20;;;;;;5054084;28;20428;-55
2022/12/12 08:32:21;;;;;;;5.25;3.15;;;19.30;31.20;;;;;;5054713;28;20074;-55
2022/12/12 08:34:47;;;;;;;3.17;2.78;;;19.40;31.10;;;;;;5043990;28;20083;-56
2022/12/12 08:37:13;;;;;;;3.88;3.20;;;19.40;31.10;;;;;;5048485;28;20029;-59
2022/12/12 08:39:38;;;;;;;6.32;3.20;;;19.50;31.10;;;;;;5045733;28;20039;-57
2022/12/12 08:42:04;;;;;;;3.90;3.33;;;19.50;31.00;;;;;;5049952;28;20024;-54
2022/12/12 08:44:31;;;;;;;3.75;2.88;;;19.60;31.00;;;;;;5032255;28;20043;-55
2022/12/12 08:46:56;;;;;;;4.55;3.03;;;19.70;31.00;;;;;;5022809;28;21817;-56
2022/12/12 08:49:22;;;;;;;4.75;3.58;;;19.70;30.90;;;;;;5052028;28;20028;-51
2022/12/12 08:51:50;;;;;;;5.38;3.47;;;19.80;30.80;;;;;;5053776;28;20116;-55
2022/12/12 08:54:16;;;;;;;6.32;3.42;;;19.90;31.30;;;;;;5036752;28;20025;-52
2022/12/12 08:56:41;;;;;;;6.53;3.30;;;19.90;30.60;;;;;;5040883;28;20472;-54
2022/12/12 08:59:07;;;;;;;4.90;3.40;;;20.00;30.60;;;;;;5047847;28;20025;-57
2022/12/12 09:01:33;;;;;;;4.90;3.50;;;20.00;30.50;;;;;;5046129;28;20094;-57
2022/12/12 09:04:01;;;;;;;4.90;3.80;;;20.10;30.50;;;;;;5048725;28;20436;-53
2022/12/12 09:06:27;;;;;;;5.07;3.47;;;20.20;30.40;;;;;;5047425;28;20158;-55
2022/12/12 09:08:54;;;;;;;7.97;3.65;;;20.20;30.40;;;;;;5047681;28;20037;-57
2022/12/12 09:11:20;;;;;;;5.20;3.63;;;20.20;30.30;;;;;;5043205;28;20026;-56
2022/12/12 09:13:46;;;;;;;5.50;3.40;;;20.30;30.20;;;;;;5053333;28;20047;-56
2022/12/12 09:16:12;;;;;;;4.70;3.47;;;20.30;30.20;;;;;;5051829;28;20025;-57
2022/12/12 09:18:39;;;;;;;6.05;3.70;;;20.40;30.20;;;;;;5029164;28;20032;-59
2022/12/12 09:21:05;;;;;;;7.55;3.50;;;20.40;30.10;;;;;;5053886;28;20048;-56
2022/12/12 09:23:31;;;;;;;8.93;3.90;;;20.50;30.10;;;;;;5058276;28;20041;-51
2022/12/12 09:25:57;;;;;;;5.45;3.85;;;20.50;30.00;;;;;;5058759;28;20071;-53
2022/12/12 09:28:24;;;;;;;5.55;3.67;;;20.60;30.00;;;;;;5056617;28;20033;-55
2022/12/12 09:30:51;;;;;;;5.20;3.72;;;20.60;30.00;;;;;;5040351;28;20115;-56
2022/12/12 09:33:17;;;;;;;7.15;3.75;;;20.70;29.90;;;;;;5058644;28;20037;-58
2022/12/12 09:35:44;;;;;;;5.25;3.88;;;20.70;29.80;;;;;;5058059;28;20112;-54
2022/12/12 09:38:10;;;;;;;5.53;3.67;;;20.70;29.70;;;;;;5058040;28;20036;-55
2022/12/12 09:40:53;;;;;;;6.18;4.28;;;20.70;29.60;;;;;;5057869;28;20082;-55
2022/12/12 09:43:25;;;;;;;5.65;4.28;;;20.80;29.50;;;;;;5058333;28;20119;-54
2022/12/12 09:45:51;;;;;;;5.32;3.40;;;20.80;29.50;;;;;;5058273;28;20028;-56
2022/12/12 09:48:25;;;;;;;5.40;3.90;;;20.90;29.50;;;;;;5058627;28;20037;-52
2022/12/12 09:50:52;;;;;;;5.55;3.65;;;20.90;29.40;;;;;;5057523;28;20406;-55
2022/12/12 09:53:21;;;;;;;4.93;3.83;;;20.90;29.30;;;;;;5036681;28;20037;-52
2022/12/12 09:56:03;;;;;;;5.05;3.70;;;20.90;29.30;;;;;;5038355;28;20064;-56
2022/12/12 09:58:42;;;;;;;5.38;3.97;;;20.90;29.20;;;;;;5050247;28;20024;-57
2022/12/12 10:01:16;;;;;;;6.10;4.03;;;21.00;29.30;;;;;;5057029;28;20041;-54
2022/12/12 10:04:20;;;;;;;4.65;3.63;;;21.00;29.20;;;;;;5058176;28;20025;-56
2022/12/12 10:06:48;;;;;;;5.25;4.18;;;21.00;29.20;;;;;;5057788;28;20130;-55
2022/12/12 10:09:57;;;;;;;5.60;3.88;;;21.00;29.20;;;;;;5056749;28;20107;-55
2022/12/12 10:12:24;;;;;;;5.63;4.03;;;21.00;29.20;;;;;;5057433;28;20033;-55
2022/12/12 10:15:01;;;;;;;4.50;3.33;;;21.00;29.20;;;;;;5058029;28;20048;-54
2022/12/12 10:17:44;;;;;;;5.00;3.67;;;21.00;29.20;;;;;;5056552;28;20036;-56
2022/12/12 10:20:26;;;;;;;5.38;3.38;;;21.00;29.20;;;;;;5057489;28;20041;-54
2022/12/12 10:23:15;;;;;;;5.30;3.42;;;21.00;29.20;;;;;;5057329;28;20045;-57
2022/12/12 10:25:48;;;;;;;6.18;3.92;;;21.00;29.20;;;;;;5046869;28;20080;-55
2022/12/12 10:28:17;;;;;;;5.20;3.80;;;21.00;29.20;;;;;;5056929;28;20035;-51
2022/12/12 10:31:16;;;;;;;5.63;3.83;;;20.90;29.10;;;;;;5057210;28;20328;-56
2022/12/12 10:33:51;;;;;;;6.43;4.13;;;20.90;29.10;;;;;;5009843;28;20052;-55
2022/12/12 10:36:54;;;;;;;5.63;4.10;;;20.90;29.00;;;;;;5056779;28;20440;-56
2022/12/12 10:39:37;;;;;;;6.00;4.32;;;20.90;29.10;;;;;;5057236;28;20040;-52
2022/12/12 10:42:12;;;;;;;5.93;4.20;;;20.90;28.90;;;;;;5056848;28;20219;-52
2022/12/12 10:44:44;;;;;;;5.80;4.20;;;20.90;28.90;;;;;;5057155;28;20040;-54
2022/12/12 10:47:11;;;;;;;5.93;4.07;;;20.90;28.90;;;;;;5056959;28;20047;-53
2022/12/12 10:49:38;;;;;;;6.03;4.43;;;20.80;28.80;;;;;;5055937;28;20036;-52
2022/12/12 10:52:13;;;;;;;5.85;4.60;;;20.90;28.80;;;;;;5039877;28;20415;-56
2022/12/12 10:54:59;;;;;;;5.75;4.60;;;20.80;28.80;;;;;;5020091;28;20420;-54
2022/12/12 10:57:26;;;;;;;;;;;20.80;28.80;;;;;;5037289;28;20053;-51
2022/12/12 10:59:55;;;;;;;5.35;4.40;;;20.80;28.70;;;;;;5038694;28;19975;-53
2022/12/12 11:02:42;;;;;;;5.30;3.90;;;20.80;28.70;;;;;;5056715;28;20460;-55
2022/12/12 11:05:21;;;;;;;5.85;4.13;;;20.70;28.70;;;;;;5021475;28;20085;-56
2022/12/12 11:08:00;;;;;;;5.60;3.95;;;20.70;28.70;;;;;;5042732;28;20094;-53
2022/12/12 11:10:29;;;;;;;6.07;4.53;;;20.70;28.70;;;;;;5056446;28;20033;-56
2022/12/12 11:13:16;;;;;;;5.22;3.92;;;20.70;28.70;;;;;;5056458;28;20348;-53
2022/12/12 11:15:50;;;;;;;6.90;4.40;;;20.70;28.70;;;;;;5055676;28;20044;-54
2022/12/12 11:18:21;;;;;;;5.78;3.92;;;20.70;28.70;;;;;;5056985;28;20047;-52
2022/12/12 11:20:51;;;;;;;4.82;3.80;;;20.70;28.90;;;;;;5055248;28;20099;-50
2022/12/12 11:23:23;;;;;;;4.93;3.40;;;20.70;29.40;;;;;;5055601;28;20103;-53
2022/12/12 11:26:09;;;;;;;5.97;3.17;;;20.70;29.80;;;;;;5055689;28;20475;-52
2022/12/12 11:28:37;;;;;;;5.32;3.50;;;20.70;29.90;;;;;;5045759;28;20033;-50
2022/12/12 11:31:13;;;;;;;6.93;3.47;;;20.70;30.00;;;;;;5047284;28;20357;-53
2022/12/12 11:33:47;;;;;;;4.10;2.90;;;20.70;30.20;;;;;;5037591;28;20032;-52
2022/12/12 11:36:20;;;;;;;3.38;2.67;;;20.70;30.30;;;;;;5053977;28;20050;-51
2022/12/12 11:38:53;;;;;;;5.20;3.20;;;20.70;30.40;;;;;;5055464;28;20040;-55
2022/12/12 11:41:19;;;;;;;4.20;2.90;;;20.70;30.40;;;;;;5035728;28;20045;-54
2022/12/12 11:43:45;;;;;;;3.58;2.70;;;20.70;30.40;;;;;;5042187;28;20043;-52
2022/12/12 11:46:13;;;;;;;4.55;3.10;;;20.70;30.50;;;;;;5051071;28;20060;-53
2022/12/12 11:48:51;;;;;;;5.53;3.00;;;20.70;30.50;;;;;;5055543;28;20032;-55
2022/12/12 11:51:39;;;;;;;4.47;2.90;;;20.70;30.50;;;;;;5055278;28;20028;-54
2022/12/12 11:54:28;;;;;;;3.72;2.90;;;20.70;30.60;;;;;;5055900;28;20109;-55
2022/12/12 11:57:18;;;;;;;5.85;2.85;;;20.70;30.60;;;;;;5036101;28;20536;-56
2022/12/12 12:00:06;;;;;;;5.78;3.22;;;20.70;30.60;;;;;;5035693;28;20045;-55
2022/12/12 12:03:12;;;;;;;5.32;3.20;;;20.70;30.60;;;;;;5035741;28;20042;-54
2022/12/12 12:05:51;;;;;;;4.32;3.00;;;20.70;30.70;;;;;;5045249;28;20025;-53
2022/12/12 12:08:23;;;;;;;4.65;2.92;;;20.70;30.70;;;;;;5045778;28;20056;-55
2022/12/12 12:10:57;;;;;;;4.00;2.92;;;20.70;30.80;;;;;;5035617;28;20041;-55
2022/12/12 12:14:01;;;;;;;4.60;3.15;;;20.70;30.70;;;;;;5027947;28;20435;-56
2022/12/12 12:16:50;;;;;;;4.30;3.08;;;20.70;31.30;;;;;;5054693;28;20036;-51
2022/12/12 12:19:19;;;;;;;3.53;2.50;;;20.70;30.70;;;;;;5019135;28;20041;-52
2022/12/12 12:22:09;;;;;;;3.65;2.75;;;20.70;30.70;;;;;;5035379;28;20041;-53
2022/12/12 12:24:48;;;;;;;4.13;3.20;;;20.70;30.60;;;;;;5031654;28;20112;-53
2022/12/12 12:27:44;;;;;;;3.28;2.50;;;20.70;30.60;;;;;;5047873;28;20036;-55
2022/12/12 12:30:23;;;;;;;4.55;3.13;;;20.70;30.70;;;;;;5053674;28;20460;-55
2022/12/12 12:33:22;;;;;;;5.30;3.40;;;20.70;30.70;;;;;;5047260;28;20028;-56
2022/12/12 12:36:08;;;;;;;3.83;2.70;;;20.70;30.60;;;;;;5052199;28;20051;-53
2022/12/12 12:39:00;;;;;;;5.63;2.83;;;20.80;30.80;;;;;;5050931;28;20024;-54
2022/12/12 12:41:52;;;;;;;5.07;2.80;;;20.70;30.80;;;;;;5050301;28;20040;-57
2022/12/12 12:44:42;;;;;;;4.05;2.90;;;20.70;30.80;;;;;;4996792;28;20052;-53
2022/12/12 12:47:14;;;;;;;4.45;2.45;;;20.70;30.80;;;;;;5038961;28;20071;-57
2022/12/12 12:49:46;;;;;;;3.92;2.85;;;20.70;30.80;;;;;;5035283;28;20072;-53
2022/12/12 12:52:37;;;;;;;3.17;2.47;;;20.70;30.80;;;;;;5047497;28;20033;-57
2022/12/12 12:55:13;;;;;;;5.13;2.90;;;20.70;30.80;;;;;;5038491;28;20045;-51
2022/12/12 12:57:43;;;;;;;3.88;2.70;;;20.70;30.80;;;;;;5042600;28;20041;-56
2022/12/12 13:00:15;;;;;;;4.65;3.08;;;20.70;30.80;;;;;;5054806;28;20037;-57
2022/12/12 13:03:00;;;;;;;8.50;2.63;;;20.80;30.80;;;;;;5036235;28;20501;-54
2022/12/12 13:05:38;;;;;;;4.50;2.72;;;20.70;30.70;;;;;;5055056;28;20107;-50
2022/12/12 13:08:19;;;;;;;3.75;2.50;;;20.70;30.70;;;;;;5051072;28;20037;-54
2022/12/12 13:10:50;;;;;;;3.10;2.40;;;20.70;30.70;;;;;;5048524;28;20025;-53
2022/12/12 13:13:38;;;;;;;6.10;2.70;;;20.70;30.60;;;;;;5035820;28;20049;-51
2022/12/12 13:16:10;;;;;;;3.90;2.55;;;20.70;31.20;;;;;;5052727;28;20388;-56
2022/12/12 13:18:38;;;;;;;3.08;2.40;;;20.70;30.60;;;;;;5041668;28;20053;-53
2022/12/12 13:21:39;;;;;;;3.50;2.70;;;20.80;30.70;;;;;;5050652;28;20124;-53
2022/12/12 13:24:16;;;;;;;3.83;2.60;;;20.70;30.60;;;;;;5036794;28;20026;-51
2022/12/12 13:26:59;;;;;;;3.33;2.60;;;20.70;30.70;;;;;;5052421;28;20037;-52
2022/12/12 13:29:59;;;;;;;6.22;3.10;;;20.70;30.70;;;;;;5052358;28;20142;-55
2022/12/12 13:32:52;;;;;;;7.72;4.45;;;20.80;30.70;;;;;;5018308;28;20363;-53
2022/12/12 13:35:44;;;;;;;19.48;8.70;;;20.70;31.20;;;;;;5035052;28;20144;-51